Auburndale, Wisconsin
Current Conditions -  °F | °C
As of 7:54 PM on Wednesday 26 Nov 2014 (Local Time) from KMFI Reporting Station
Light Snow Light Snow  
Wind Chill: 12°   Ceiling: 7000
Heat Index: 22°   Visibility: 4mi
Dew Point: 19°   Wind: 9mph
Humidity: 89%   Direction: 330°NNW
Pressure: 30.17"   Gusts: NA
Location:  44.63°N, 90.01°W
Report Text: KMFI 270154Z AUTO 33008KT 4SM -SN BR BKN070 OVC095 M06/M07 A3017 RMK AO2 SNE19B49 SLP241 P0000 T10561072
Loading
Personal Weather Stations






























Interactive Weather Map New forecast layout! Learn more

10-Day Weather Forecast

Advertisements
Track Severe Weather on mobile